createdAt,value
2023-06-18T00:00:18.670Z,99972.98
2023-06-18T00:01:23.346Z,99978.63
2023-06-18T00:02:27.994Z,99981.45
2023-06-18T00:03:32.637Z,99979.94
2023-06-18T00:04:37.943Z,99977.87
2023-06-18T00:05:43.166Z,99977.87
2023-06-18T00:06:48.344Z,99977.87
2023-06-18T00:07:52.901Z,99980.48
2023-06-18T00:08:58.075Z,99976.89
2023-06-18T00:10:02.716Z,99984.61
2023-06-18T00:11:07.517Z,99973.84
2023-06-18T00:12:13.217Z,99972.35
2023-06-18T00:13:18.831Z,99975.17
2023-06-18T00:14:24.030Z,99977.78
2023-06-18T00:15:28.428Z,99979.84
2023-06-18T00:16:33.369Z,99975.50
2023-06-18T00:17:37.930Z,99968.33
2023-06-18T00:18:42.746Z,99978.11
2023-06-18T00:19:47.987Z,99970.94
2023-06-18T00:20:53.179Z,99973.00
2023-06-18T00:21:57.962Z,99970.72
2023-06-18T00:23:03.488Z,99968.44
2023-06-18T00:24:08.553Z,99968.44
2023-06-18T00:25:13.613Z,99966.91
2023-06-18T00:26:18.889Z,99974.62
2023-06-18T00:27:25.588Z,99971.80
2023-06-18T00:28:30.244Z,99970.27
2023-06-18T00:29:34.945Z,99970.27
2023-06-18T00:30:40.813Z,99974.62
2023-06-18T00:31:45.664Z,99973.10
2023-06-18T00:32:50.802Z,99971.03
2023-06-18T00:33:55.461Z,99977.45
2023-06-18T00:35:01.522Z,99977.45
2023-06-18T00:36:06.052Z,99977.45
2023-06-18T00:37:11.506Z,99977.23
2023-06-18T00:38:16.158Z,99979.30
2023-06-18T00:39:20.778Z,99974.19
2023-06-18T00:40:25.810Z,99972.66
2023-06-18T00:41:32.634Z,99980.38
2023-06-18T00:42:37.368Z,99971.71
2023-06-18T00:43:42.047Z,99966.82
2023-06-18T00:44:47.309Z,99973.20
2023-06-18T00:45:52.094Z,99970.37
2023-06-18T00:46:58.391Z,99975.30
2023-06-18T00:48:04.047Z,99970.37
2023-06-18T00:49:09.100Z,99969.64
2023-06-18T00:50:15.477Z,99969.64
2023-06-18T00:51:20.752Z,99975.30
2023-06-18T00:52:26.460Z,99976.03
2023-06-18T00:53:31.114Z,99969.08
2023-06-18T00:54:35.933Z,99963.42
2023-06-18T00:55:41.068Z,99968.31
2023-06-18T00:56:45.744Z,99969.84
2023-06-18T00:57:50.810Z,99971.36
2023-06-18T00:58:56.490Z,99970.59
2023-06-18T01:00:01.860Z,99974.19
2023-06-18T01:01:07.316Z,99974.19
2023-06-18T01:02:12.954Z,99977.02
2023-06-18T01:03:19.168Z,99968.53
2023-06-18T01:04:23.811Z,99968.53
2023-06-18T01:05:29.251Z,99972.88
2023-06-18T01:06:34.142Z,99975.70
2023-06-18T01:07:42.057Z,99971.36
2023-06-18T01:08:47.409Z,99975.70
2023-06-18T01:09:52.106Z,99970.06
2023-06-18T01:11:02.318Z,99972.88
2023-06-18T01:12:07.118Z,99972.13
2023-06-18T01:13:13.795Z,99979.08
2023-06-18T01:14:18.546Z,99976.25
2023-06-18T01:15:23.652Z,99980.38
2023-06-18T01:16:28.998Z,99976.79
2023-06-18T01:17:34.824Z,99985.27
2023-06-18T01:18:42.209Z,99972.47
2023-06-18T01:19:57.078Z,99973.97
2023-06-18T01:21:01.917Z,99973.97
2023-06-18T01:22:09.781Z,99976.79
2023-06-18T01:23:30.010Z,99974.73
2023-06-18T01:24:35.335Z,99975.48
2023-06-18T01:25:41.047Z,99977.02
2023-06-18T01:26:45.976Z,99976.47
2023-06-18T01:27:50.398Z,99976.47
2023-06-18T01:28:55.255Z,99974.41
2023-06-18T01:30:00.097Z,99980.05
2023-06-18T01:31:05.303Z,99976.47
2023-06-18T01:32:11.679Z,99981.58
2023-06-18T01:33:16.428Z,99983.64
2023-06-18T01:34:21.581Z,99977.23
2023-06-18T01:35:28.489Z,99983.64
2023-06-18T01:36:54.300Z,99980.05
2023-06-18T01:38:17.615Z,99977.77
2023-06-18T01:39:29.411Z,99978.53
2023-06-18T01:42:05.418Z,99986.36
2023-06-18T01:44:33.361Z,99978.21
2023-06-18T01:46:47.757Z,99978.75
2023-06-18T01:47:52.940Z,99991.05
2023-06-18T01:49:00.138Z,99984.63
2023-06-18T01:50:05.115Z,99991.05
2023-06-18T01:51:09.850Z,99985.39
2023-06-18T01:52:13.953Z,99993.87
2023-06-18T01:53:20.188Z,99993.33
2023-06-18T01:54:24.898Z,99988.98
2023-06-18T01:55:30.648Z,99987.68
2023-06-18T01:56:34.358Z,99993.33
2023-06-18T01:57:39.761Z,99990.50
2023-06-18T01:58:45.140Z,99990.50
2023-06-18T01:59:50.587Z,99986.92
2023-06-18T02:00:55.360Z,99987.68
2023-06-18T02:02:00.129Z,99988.22
2023-06-18T02:03:03.370Z,99991.05
2023-06-18T02:04:08.170Z,99988.22
2023-06-18T02:05:12.937Z,99993.87
2023-06-18T02:06:17.702Z,99990.83
2023-06-18T02:07:22.928Z,99993.65
2023-06-18T02:08:26.754Z,99992.89
2023-06-18T02:09:32.265Z,100002.66
2023-06-18T02:10:37.504Z,99996.25
2023-06-18T02:11:43.993Z,99986.25
2023-06-18T02:12:49.211Z,99994.73
2023-06-18T02:13:54.431Z,99991.91
2023-06-18T02:14:59.129Z,99991.14
2023-06-18T02:16:03.947Z,99989.08
2023-06-18T02:17:09.560Z,99993.20
2023-06-18T02:18:14.232Z,99989.62
2023-06-18T02:19:18.895Z,99995.27
2023-06-18T02:20:24.364Z,99998.86
2023-06-18T02:21:29.294Z,99994.50
2023-06-18T02:22:35.125Z,100001.68
2023-06-18T02:23:40.267Z,100004.50
2023-06-18T02:24:44.950Z,99998.09
2023-06-18T02:25:51.607Z,100003.96
2023-06-18T02:26:56.589Z,100008.85
2023-06-18T02:28:00.694Z,100004.50
2023-06-18T02:29:05.475Z,100010.69
2023-06-18T02:30:11.446Z,100007.11
2023-06-18T02:31:16.077Z,100012.75
2023-06-18T02:32:20.916Z,100011.23
2023-06-18T02:33:26.485Z,100014.82
2023-06-18T02:34:31.156Z,100016.34
2023-06-18T02:35:36.383Z,100020.47
2023-06-18T02:36:41.207Z,100014.82
2023-06-18T02:37:48.171Z,100017.11
2023-06-18T02:38:53.436Z,100011.99
2023-06-18T02:39:58.469Z,100014.82
2023-06-18T02:41:03.283Z,100008.41
2023-06-18T02:42:07.029Z,100016.12
2023-06-18T02:43:09.912Z,100014.82
2023-06-18T02:44:15.440Z,100011.23
2023-06-18T02:45:21.241Z,100021.99
2023-06-18T02:46:26.505Z,100015.80
2023-06-18T02:47:31.828Z,100017.33
2023-06-18T02:48:35.217Z,100011.67
2023-06-18T02:49:39.592Z,100009.61
2023-06-18T02:50:45.563Z,100016.02
2023-06-18T02:51:50.777Z,100011.36
2023-06-18T02:52:55.421Z,100011.36
2023-06-18T02:54:00.107Z,100017.99
2023-06-18T02:55:04.999Z,100018.75
2023-06-18T02:56:11.208Z,100018.75
2023-06-18T02:57:15.989Z,100012.56
2023-06-18T02:58:20.872Z,100014.84
2023-06-18T02:59:25.419Z,100016.34
2023-06-18T03:00:30.657Z,100019.39
2023-06-18T03:01:37.364Z,100023.73
2023-06-18T03:02:43.089Z,100014.72
2023-06-18T03:03:49.918Z,100013.42
2023-06-18T03:04:55.410Z,100017.01
2023-06-18T03:06:00.316Z,100015.70
2023-06-18T03:07:07.331Z,100013.64
2023-06-18T03:08:12.535Z,100016.69
2023-06-18T03:09:17.758Z,100016.14
2023-06-18T03:10:23.290Z,100014.30
2023-06-18T03:11:30.536Z,100017.34
2023-06-18T03:12:35.719Z,100016.81
2023-06-18T03:13:42.671Z,100010.59
2023-06-18T03:14:47.266Z,100009.50
2023-06-18T03:15:51.987Z,100013.31
2023-06-18T03:16:57.867Z,100012.80
2023-06-18T03:18:03.228Z,100019.42
2023-06-18T03:19:08.633Z,100022.48
2023-06-18T03:20:16.033Z,100027.05
2023-06-18T03:21:21.600Z,100026.50
2023-06-18T03:22:27.030Z,100032.38
2023-06-18T03:23:32.888Z,100036.16
2023-06-18T03:24:39.428Z,100029.20
2023-06-18T03:25:45.410Z,100029.41
2023-06-18T03:26:52.265Z,100024.73
2023-06-18T03:27:57.006Z,100029.84
2023-06-18T03:29:03.483Z,100025.72
2023-06-18T03:30:08.364Z,100023.87
2023-06-18T03:31:13.816Z,100020.50
2023-06-18T03:32:18.914Z,100027.89
2023-06-18T03:33:23.603Z,100025.06
2023-06-18T03:34:28.385Z,100035.83
2023-06-18T03:35:33.815Z,100026.02
2023-06-18T03:36:38.611Z,100030.36
2023-06-18T03:37:45.214Z,100025.69
2023-06-18T03:38:49.934Z,100030.04
2023-06-18T03:39:54.715Z,100030.26
2023-06-18T03:40:59.942Z,100028.41
2023-06-18T03:42:07.846Z,100030.69
2023-06-18T03:43:13.610Z,100040.15
2023-06-18T03:44:18.738Z,100034.71
2023-06-18T03:45:23.354Z,100032.86
2023-06-18T03:46:28.398Z,100033.27
2023-06-18T03:47:33.491Z,100029.34
2023-06-18T03:48:36.832Z,100035.22
2023-06-18T03:49:42.191Z,100041.85
2023-06-18T03:50:47.181Z,100035.09
2023-06-18T03:51:51.889Z,100036.08
2023-06-18T03:52:56.988Z,100040.83
2023-06-18T03:54:01.329Z,100035.41
2023-06-18T03:55:08.417Z,100041.50
2023-06-18T03:56:13.467Z,100040.41
2023-06-18T03:57:18.656Z,100039.86
2023-06-18T03:58:23.262Z,100040.62
2023-06-18T03:59:28.345Z,100045.52
2023-06-18T04:00:33.133Z,100048.89
2023-06-18T04:01:38.611Z,100047.16
2023-06-18T04:02:44.873Z,100039.77
2023-06-18T04:03:52.022Z,100041.59
2023-06-18T04:04:57.610Z,100042.34
2023-06-18T04:06:01.974Z,100047.49
2023-06-18T04:07:08.822Z,100041.28
2023-06-18T04:08:13.492Z,100042.26
2023-06-18T04:09:20.333Z,100040.41
2023-06-18T04:10:25.059Z,100042.36
2023-06-18T04:11:30.617Z,100044.82
2023-06-18T04:12:36.693Z,100051.67
2023-06-18T04:13:41.344Z,100052.09
2023-06-18T04:14:47.085Z,100046.09
2023-06-18T04:15:52.242Z,100052.73
2023-06-18T04:16:57.456Z,100056.53
2023-06-18T04:18:02.205Z,100053.70
2023-06-18T04:19:07.098Z,100057.84
2023-06-18T04:20:14.101Z,100054.80
2023-06-18T04:21:18.530Z,100054.37
2023-06-18T04:22:23.285Z,100051.13
2023-06-18T04:23:27.960Z,100047.53
2023-06-18T04:24:32.684Z,100050.36
2023-06-18T04:25:37.725Z,100055.69
2023-06-18T04:26:43.039Z,100056.66
2023-06-18T04:27:48.035Z,100049.69
2023-06-18T04:28:53.674Z,100054.59
2023-06-18T04:29:58.986Z,100056.88
2023-06-18T04:31:04.299Z,100057.30
2023-06-18T04:32:09.622Z,100058.66
2023-06-18T04:33:14.867Z,100055.92
2023-06-18T04:34:19.959Z,100055.97
2023-06-18T04:35:24.342Z,100058.67
2023-06-18T04:36:30.528Z,100054.95
2023-06-18T04:37:35.581Z,100053.30
2023-06-18T04:38:40.887Z,100051.09
2023-06-18T04:39:45.936Z,100052.27
2023-06-18T04:40:52.892Z,100051.02
2023-06-18T04:41:58.192Z,100052.03
2023-06-18T04:43:02.861Z,100062.12
2023-06-18T04:44:09.582Z,100054.41
2023-06-18T04:45:14.304Z,100058.62
2023-06-18T04:46:19.580Z,100057.71
2023-06-18T04:47:24.411Z,100062.65
2023-06-18T04:48:29.557Z,100064.45
2023-06-18T04:49:34.283Z,100061.09
2023-06-18T04:50:39.583Z,100066.05
2023-06-18T04:51:44.960Z,100067.41
2023-06-18T04:52:51.076Z,100059.63
2023-06-18T04:53:57.363Z,100066.06
2023-06-18T04:55:02.574Z,100069.31
2023-06-18T04:56:12.344Z,100062.72
2023-06-18T04:57:19.437Z,100064.64
2023-06-18T04:58:24.420Z,100069.96
2023-06-18T04:59:31.029Z,100070.00
2023-06-18T05:00:36.743Z,100077.23
2023-06-18T05:01:41.768Z,100069.31
2023-06-18T05:02:51.921Z,100068.75
2023-06-18T05:03:57.068Z,100072.34
2023-06-18T05:05:02.479Z,100072.91
2023-06-18T05:06:07.922Z,100081.80
2023-06-18T05:07:13.656Z,100083.45
2023-06-18T05:08:18.891Z,100075.48
2023-06-18T05:09:23.528Z,100082.88
2023-06-18T05:10:29.374Z,100084.00
2023-06-18T05:11:34.622Z,100082.84
2023-06-18T05:12:40.233Z,100075.64
2023-06-18T05:13:44.831Z,100076.77
2023-06-18T05:14:50.563Z,100082.80
2023-06-18T05:15:55.805Z,100086.98
2023-06-18T05:17:01.127Z,100085.08
2023-06-18T05:18:05.512Z,100083.00
2023-06-18T05:19:10.387Z,100087.36
2023-06-18T05:20:15.767Z,100083.00
2023-06-18T05:21:21.489Z,100089.63
2023-06-18T05:22:26.439Z,100087.20
2023-06-18T05:23:33.089Z,100088.91
2023-06-18T05:24:38.615Z,100083.84
2023-06-18T05:25:44.632Z,100081.92
2023-06-18T05:26:49.460Z,100079.31
2023-06-18T05:27:54.604Z,100089.91
2023-06-18T05:28:59.780Z,100086.09
2023-06-18T05:30:07.245Z,100086.84
2023-06-18T05:31:12.216Z,100093.51
2023-06-18T05:32:17.426Z,100090.67
2023-06-18T05:33:22.237Z,100089.35
2023-06-18T05:34:28.949Z,100090.11
2023-06-18T05:35:38.634Z,100089.75
2023-06-18T05:36:43.492Z,100092.19
2023-06-18T05:37:48.104Z,100087.08
2023-06-18T05:38:52.856Z,100090.88
2023-06-18T05:39:57.293Z,100096.95
2023-06-18T05:41:01.991Z,100099.42
2023-06-18T05:42:10.033Z,100094.50
2023-06-18T05:43:15.131Z,100097.54
2023-06-18T05:44:21.995Z,100098.30
2023-06-18T05:45:26.672Z,100092.98
2023-06-18T05:46:31.468Z,100095.46
2023-06-18T05:47:36.814Z,100092.81
2023-06-18T05:48:42.804Z,100092.66
2023-06-18T05:49:47.073Z,100092.08
2023-06-18T05:50:52.025Z,100090.03
2023-06-18T05:51:57.185Z,100095.14
2023-06-18T05:53:01.919Z,100100.12
2023-06-18T05:54:07.116Z,100101.64
2023-06-18T05:55:10.650Z,100101.06
2023-06-18T05:56:16.012Z,100093.83
2023-06-18T05:57:20.717Z,100099.52
2023-06-18T05:58:25.995Z,100101.41
2023-06-18T05:59:30.875Z,100095.09
2023-06-18T06:00:37.456Z,100094.53
2023-06-18T06:01:42.594Z,100097.41
2023-06-18T06:02:48.152Z,100096.66
2023-06-18T06:03:56.004Z,100093.23
2023-06-18T06:05:01.268Z,100095.09
2023-06-18T06:06:05.485Z,100094.72
2023-06-18T06:07:10.820Z,100094.14
2023-06-18T06:08:16.463Z,100098.52
2023-06-18T06:09:23.026Z,100099.50
2023-06-18T06:10:28.441Z,100098.75
2023-06-18T06:11:33.469Z,100096.86
2023-06-18T06:12:38.690Z,100089.47
2023-06-18T06:13:43.363Z,100095.72
2023-06-18T06:14:49.121Z,100103.50
2023-06-18T06:15:53.954Z,100098.76
2023-06-18T06:16:59.668Z,100100.84
2023-06-18T06:18:05.379Z,100109.00
2023-06-18T06:19:10.644Z,100113.36
2023-06-18T06:20:16.015Z,100109.00
2023-06-18T06:21:21.193Z,100110.70
2023-06-18T06:22:25.821Z,100104.67
2023-06-18T06:23:30.841Z,100103.34
2023-06-18T06:24:36.164Z,100102.94
2023-06-18T06:25:41.230Z,100110.33
2023-06-18T06:26:46.397Z,100110.14
2023-06-18T06:27:51.059Z,100113.95
2023-06-18T06:28:56.251Z,100113.77
2023-06-18T06:30:00.841Z,100110.73
2023-06-18T06:31:06.138Z,100107.70
2023-06-18T06:32:11.429Z,100114.33
2023-06-18T06:33:16.172Z,100112.81
2023-06-18T06:34:20.917Z,100111.67
2023-06-18T06:35:25.600Z,100115.66
2023-06-18T06:36:30.744Z,100114.70
2023-06-18T06:37:35.822Z,100121.72
2023-06-18T06:38:42.397Z,100113.94
2023-06-18T06:39:47.137Z,100113.38
2023-06-18T06:40:52.289Z,100120.77
2023-06-18T06:41:56.611Z,100113.19
2023-06-18T06:43:03.131Z,100115.66
2023-06-18T06:44:12.460Z,100113.95
2023-06-18T06:45:19.129Z,100113.74
2023-06-18T06:46:41.691Z,100124.55
2023-06-18T06:48:04.742Z,100122.28
2023-06-18T06:50:18.842Z,100120.37
2023-06-18T06:52:39.380Z,100115.40
2023-06-18T06:53:46.613Z,100122.05
2023-06-18T06:54:51.125Z,100114.45
2023-06-18T06:55:55.886Z,100125.45
2023-06-18T06:57:01.315Z,100119.75
2023-06-18T06:58:06.066Z,100122.92
2023-06-18T06:59:12.217Z,100119.88
2023-06-18T07:00:18.184Z,100126.47
2023-06-18T07:01:23.271Z,100121.72
2023-06-18T07:02:29.067Z,100129.06
2023-06-18T07:03:34.087Z,100119.33
2023-06-18T07:04:38.842Z,100133.58
2023-06-18T07:05:44.007Z,100118.42
2023-06-18T07:06:48.837Z,100126.42
2023-06-18T07:07:53.508Z,100131.78
2023-06-18T07:08:59.839Z,100128.17
2023-06-18T07:10:05.595Z,100129.11
2023-06-18T07:11:10.752Z,100132.30
2023-06-18T07:12:15.421Z,100132.09
2023-06-18T07:13:20.581Z,100127.52
2023-06-18T07:14:26.215Z,100137.19
2023-06-18T07:15:30.872Z,100136.55
2023-06-18T07:16:35.941Z,100126.45
2023-06-18T07:17:40.768Z,100129.23
2023-06-18T07:18:43.347Z,100130.73
2023-06-18T07:19:48.498Z,100130.09
2023-06-18T07:20:53.344Z,100137.91
2023-06-18T07:21:58.515Z,100132.94
2023-06-18T07:23:03.314Z,100133.12
2023-06-18T07:24:07.047Z,100134.05
2023-06-18T07:25:13.331Z,100134.01
2023-06-18T07:26:19.222Z,100137.22
2023-06-18T07:27:23.960Z,100137.31
2023-06-18T07:28:29.119Z,100134.15
2023-06-18T07:29:33.965Z,100123.09
2023-06-18T07:30:38.781Z,100131.65
2023-06-18T07:31:43.740Z,100124.37
2023-06-18T07:32:49.002Z,100130.02
2023-06-18T07:33:53.616Z,100125.41
2023-06-18T07:34:58.285Z,100127.09
2023-06-18T07:36:03.424Z,100122.91
2023-06-18T07:37:08.210Z,100122.08
2023-06-18T07:38:13.393Z,100131.30
2023-06-18T07:39:20.895Z,100123.08
2023-06-18T07:40:25.467Z,100128.55
2023-06-18T07:41:30.852Z,100126.28
2023-06-18T07:42:36.055Z,100132.75
2023-06-18T07:43:41.315Z,100142.24
2023-06-18T07:44:45.957Z,100133.98
2023-06-18T07:45:51.107Z,100134.91
2023-06-18T07:46:56.451Z,100138.53
2023-06-18T07:48:01.313Z,100130.99
2023-06-18T07:49:06.706Z,100129.31
2023-06-18T07:50:12.517Z,100133.84
2023-06-18T07:51:17.709Z,100128.13
2023-06-18T07:52:22.747Z,100132.06
2023-06-18T07:53:27.510Z,100129.72
2023-06-18T07:54:32.837Z,100126.64
2023-06-18T07:55:37.600Z,100136.89
2023-06-18T07:56:42.460Z,100127.70
2023-06-18T07:57:47.140Z,100129.08
2023-06-18T07:58:52.334Z,100131.77
2023-06-18T07:59:57.034Z,100132.52
2023-06-18T08:01:01.820Z,100133.87
2023-06-18T08:02:07.527Z,100131.18
2023-06-18T08:03:13.103Z,100132.69
2023-06-18T08:04:17.987Z,100124.02
2023-06-18T08:05:23.162Z,100136.87
2023-06-18T08:06:28.469Z,100128.77
2023-06-18T08:07:33.558Z,100139.19
2023-06-18T08:08:38.702Z,100135.32
2023-06-18T08:09:43.443Z,100135.82
2023-06-18T08:10:48.734Z,100137.20
2023-06-18T08:11:53.419Z,100136.55
2023-06-18T08:12:58.233Z,100140.38
2023-06-18T08:14:03.372Z,100140.86
2023-06-18T08:15:13.544Z,100144.31
2023-06-18T08:16:20.166Z,100140.86
2023-06-18T08:17:25.391Z,100137.08
2023-06-18T08:18:30.263Z,100137.18
2023-06-18T08:19:37.536Z,100142.14
2023-06-18T08:20:42.845Z,100136.42
2023-06-18T08:21:47.548Z,100137.52
2023-06-18T08:22:52.722Z,100143.55
2023-06-18T08:23:57.882Z,100134.06
2023-06-18T08:25:02.605Z,100136.00
2023-06-18T08:26:07.484Z,100131.63
2023-06-18T08:27:12.822Z,100136.92
2023-06-18T08:28:17.979Z,100134.06
2023-06-18T08:29:22.613Z,100127.91
2023-06-18T08:30:27.791Z,100135.89
2023-06-18T08:31:32.573Z,100128.83
2023-06-18T08:32:37.288Z,100127.48
2023-06-18T08:33:42.050Z,100130.61
2023-06-18T08:34:46.683Z,100125.16
2023-06-18T08:35:51.530Z,100123.48
2023-06-18T08:36:56.903Z,100131.13
2023-06-18T08:38:01.588Z,100125.88
2023-06-18T08:39:08.289Z,100125.52
2023-06-18T08:40:16.043Z,100129.56
2023-06-18T08:41:21.435Z,100128.97
2023-06-18T08:42:26.603Z,100129.91
2023-06-18T08:43:32.820Z,100129.63
2023-06-18T08:44:37.500Z,100126.50
2023-06-18T08:45:42.654Z,100131.20
2023-06-18T08:46:48.012Z,100126.83
2023-06-18T08:47:52.857Z,100124.72
2023-06-18T08:49:02.007Z,100127.58
2023-06-18T08:50:06.806Z,100129.09
2023-06-18T08:51:13.155Z,100123.97
2023-06-18T08:52:18.085Z,100129.95
2023-06-18T08:53:25.636Z,100124.98
2023-06-18T08:55:43.914Z,100122.78
2023-06-18T08:56:50.665Z,100121.38
2023-06-18T08:59:07.242Z,100122.72
2023-06-18T09:00:13.152Z,100117.89
2023-06-18T09:01:18.439Z,100123.61
2023-06-18T09:02:23.379Z,100121.05
2023-06-18T09:03:28.192Z,100115.82
2023-06-18T09:04:33.701Z,100115.39
2023-06-18T09:05:39.025Z,100118.41
2023-06-18T09:06:42.733Z,100118.41
2023-06-18T09:07:48.337Z,100114.20
2023-06-18T09:08:53.297Z,100109.41
2023-06-18T09:09:59.096Z,100115.28
2023-06-18T09:11:03.887Z,100110.33
2023-06-18T09:12:12.740Z,100112.56
2023-06-18T09:13:17.855Z,100107.59
2023-06-18T09:14:22.535Z,100108.52
2023-06-18T09:15:29.781Z,100097.83
2023-06-18T09:16:35.059Z,100106.73
2023-06-18T09:17:40.490Z,100105.55
2023-06-18T09:18:45.672Z,100116.84
2023-06-18T09:19:50.349Z,100109.17
2023-06-18T09:20:56.226Z,100100.92
2023-06-18T09:22:19.808Z,100102.27
2023-06-18T09:23:24.114Z,100098.22
2023-06-18T09:24:29.156Z,100106.71
2023-06-18T09:25:35.073Z,100104.30
2023-06-18T09:26:40.148Z,100092.56
2023-06-18T09:27:44.823Z,100097.57
2023-06-18T09:28:50.658Z,100099.80
2023-06-18T09:29:55.223Z,100094.70
2023-06-18T09:31:03.915Z,100095.61
2023-06-18T09:33:33.710Z,100086.44
2023-06-18T09:34:39.155Z,100092.33
2023-06-18T09:35:43.884Z,100086.89
2023-06-18T09:36:50.631Z,100089.43
2023-06-18T09:37:56.473Z,100083.70
2023-06-18T09:39:01.635Z,100073.47
2023-06-18T09:40:21.000Z,100075.42
2023-06-18T09:41:25.938Z,100077.05
2023-06-18T09:42:31.608Z,100082.02
2023-06-18T09:43:38.262Z,100081.70
2023-06-18T09:44:45.521Z,100082.16
2023-06-18T09:45:49.534Z,100080.65
2023-06-18T09:46:56.846Z,100084.73
2023-06-18T09:48:02.767Z,100073.12
2023-06-18T09:49:08.301Z,100071.45
2023-06-18T09:50:14.694Z,100079.75
2023-06-18T09:51:21.421Z,100077.78
2023-06-18T09:52:26.852Z,100078.70
2023-06-18T09:53:31.518Z,100076.48
2023-06-18T09:54:41.428Z,100081.31
2023-06-18T09:55:46.509Z,100070.75
2023-06-18T09:56:59.425Z,100070.75
2023-06-18T09:58:04.559Z,100065.02
2023-06-18T09:59:09.688Z,100076.30
2023-06-18T10:00:15.306Z,100078.70
2023-06-18T10:01:22.850Z,100071.75
2023-06-18T10:02:27.582Z,100078.24
2023-06-18T10:03:32.306Z,100078.54
2023-06-18T10:04:37.027Z,100077.47
2023-06-18T10:05:42.078Z,100076.57
2023-06-18T10:07:06.419Z,100077.18
2023-06-18T10:08:11.125Z,100075.52
2023-06-18T10:09:15.885Z,100074.77
2023-06-18T10:10:20.963Z,100074.77
2023-06-18T10:11:25.651Z,100072.51
2023-06-18T10:12:30.521Z,100080.67
2023-06-18T10:13:35.244Z,100078.84
2023-06-18T10:14:40.482Z,100076.73
2023-06-18T10:15:45.172Z,100082.02
2023-06-18T10:16:50.811Z,100074.16
2023-06-18T10:17:55.543Z,100080.50
2023-06-18T10:19:12.878Z,100075.38
2023-06-18T10:20:16.384Z,100074.92
2023-06-18T10:21:20.818Z,100075.36
2023-06-18T10:22:25.995Z,100078.08
2023-06-18T10:23:30.637Z,100075.81
2023-06-18T10:24:48.572Z,100078.84
2023-06-18T10:25:51.499Z,100081.27
2023-06-18T10:26:56.493Z,100072.11
2023-06-18T10:28:01.772Z,100077.98
2023-06-18T10:29:07.419Z,100078.41
2023-06-18T10:30:13.464Z,100078.24
2023-06-18T10:31:18.653Z,100076.72
2023-06-18T10:32:23.393Z,100075.63
2023-06-18T10:33:28.617Z,100079.85
2023-06-18T10:34:36.794Z,100077.88
2023-06-18T10:35:41.489Z,100076.38
2023-06-18T10:36:47.233Z,100072.00
2023-06-18T10:37:51.924Z,100083.77
2023-06-18T10:38:55.336Z,100076.38
2023-06-18T10:40:00.563Z,100074.31
2023-06-18T10:42:19.922Z,100071.30
2023-06-18T10:43:26.746Z,100074.66
2023-06-18T10:44:50.957Z,100061.69
2023-06-18T10:46:13.715Z,100078.41
2023-06-18T10:48:39.360Z,100074.16
2023-06-18T10:49:45.656Z,100074.33
2023-06-18T10:51:21.019Z,100072.21
2023-06-18T10:52:27.822Z,100075.52
2023-06-18T10:53:31.325Z,100070.41
2023-06-18T10:54:36.058Z,100074.18
2023-06-18T10:55:41.460Z,100075.42
2023-06-18T10:56:52.782Z,100073.88
2023-06-18T10:58:07.328Z,100068.98
2023-06-18T10:59:15.435Z,100077.11
2023-06-18T11:00:20.405Z,100071.92
2023-06-18T11:01:29.467Z,100082.20
2023-06-18T11:02:35.168Z,100066.65
2023-06-18T11:03:41.110Z,100061.81
2023-06-18T11:04:45.926Z,100073.22
2023-06-18T11:07:23.268Z,100075.80
2023-06-18T11:08:29.497Z,100068.95
2023-06-18T11:09:34.898Z,100069.88
2023-06-18T11:10:42.582Z,100070.56
2023-06-18T11:11:53.454Z,100065.58
2023-06-18T11:12:58.615Z,100064.53
2023-06-18T11:14:03.878Z,100066.33
2023-06-18T11:15:17.348Z,100067.69
2023-06-18T11:16:22.575Z,100070.73
2023-06-18T11:17:27.261Z,100069.05
2023-06-18T11:18:32.578Z,100070.33
2023-06-18T11:19:37.969Z,100071.22
2023-06-18T11:20:42.572Z,100067.41
2023-06-18T11:21:47.445Z,100072.41
2023-06-18T11:24:26.473Z,100078.41
2023-06-18T11:25:31.903Z,100083.72
2023-06-18T11:26:36.892Z,100069.20
2023-06-18T11:28:50.432Z,100074.94
2023-06-18T11:29:57.490Z,100075.74
2023-06-18T11:31:00.237Z,100072.13
2023-06-18T11:32:16.418Z,100069.72
2023-06-18T11:33:28.817Z,100071.39
2023-06-18T11:34:34.008Z,100077.47
2023-06-18T11:35:39.250Z,100075.81
2023-06-18T11:36:44.555Z,100081.82
2023-06-18T11:37:49.340Z,100080.80
2023-06-18T11:38:55.113Z,100078.24
2023-06-18T11:40:00.356Z,100075.23
2023-06-18T11:41:05.118Z,100076.14
2023-06-18T11:42:21.080Z,100077.08
2023-06-18T11:43:25.878Z,100078.27
2023-06-18T11:44:30.679Z,100081.88
2023-06-18T11:45:35.368Z,100080.06
2023-06-18T11:46:40.649Z,100079.01
2023-06-18T11:47:49.443Z,100076.76
2023-06-18T11:48:54.151Z,100080.83
2023-06-18T11:49:59.818Z,100081.44
2023-06-18T11:51:04.528Z,100074.95
2023-06-18T11:52:11.852Z,100083.24
2023-06-18T11:53:16.702Z,100077.08
2023-06-18T11:54:19.860Z,100068.48
2023-06-18T11:55:23.034Z,100076.48
2023-06-18T11:56:29.707Z,100081.88
2023-06-18T11:57:34.885Z,100075.98
2023-06-18T11:58:40.035Z,100078.69
2023-06-18T11:59:43.035Z,100079.44
2023-06-18T12:00:47.804Z,100076.38
2023-06-18T12:01:52.815Z,100079.22
2023-06-18T12:02:58.157Z,100071.17
2023-06-18T12:04:08.725Z,100074.94
2023-06-18T12:05:13.629Z,100079.31
2023-06-18T12:06:18.326Z,100076.44
2023-06-18T12:07:22.005Z,100068.44
2023-06-18T12:08:26.842Z,100074.03
2023-06-18T12:09:36.051Z,100071.92
2023-06-18T12:10:41.289Z,100074.03
2023-06-18T12:11:53.137Z,100070.87
2023-06-18T12:13:02.181Z,100077.52
2023-06-18T12:14:07.487Z,100073.02
2023-06-18T12:15:18.441Z,100070.62
2023-06-18T12:16:25.255Z,100072.13
2023-06-18T12:17:34.107Z,100075.89
2023-06-18T12:18:39.781Z,100071.78
2023-06-18T12:19:44.685Z,100079.62
2023-06-18T12:20:49.029Z,100073.02
2023-06-18T12:21:54.194Z,100073.48
2023-06-18T12:22:59.984Z,100065.63
2023-06-18T12:24:05.242Z,100072.13
2023-06-18T12:25:10.968Z,100066.24
2023-06-18T12:26:16.246Z,100065.95
2023-06-18T12:27:21.524Z,100066.09
2023-06-18T12:28:27.125Z,100064.42
2023-06-18T12:29:31.721Z,100064.83
2023-06-18T12:30:39.388Z,100062.41
2023-06-18T12:31:44.397Z,100063.60
2023-06-18T12:32:52.930Z,100059.48
2023-06-18T12:33:58.027Z,100067.08
2023-06-18T12:35:14.325Z,100063.02
2023-06-18T12:36:19.915Z,100067.92
2023-06-18T12:37:36.453Z,100067.63
2023-06-18T12:38:46.228Z,100072.00
2023-06-18T12:40:10.900Z,100067.63
2023-06-18T12:41:20.950Z,100069.13
2023-06-18T12:42:26.134Z,100073.51
2023-06-18T12:43:31.305Z,100066.41
2023-06-18T12:44:36.066Z,100065.95
2023-06-18T12:45:40.704Z,100065.20
2023-06-18T12:46:44.404Z,100066.70
2023-06-18T12:47:49.692Z,100065.20
2023-06-18T12:48:54.467Z,100071.69
2023-06-18T12:49:59.211Z,100069.11
2023-06-18T12:51:04.405Z,100063.38
2023-06-18T12:52:19.829Z,100060.94